MST,Max TemperatureF,Mean TemperatureF,Min TemperatureF,Max Dew PointF,MeanDew PointF,Min DewpointF,Max Humidity, Mean Humidity, Min Humidity, Max Sea Level PressureIn, Mean Sea Level PressureIn, Min Sea Level PressureIn, Max VisibilityMiles, Mean VisibilityMiles, Min VisibilityMiles, Max Wind SpeedMPH, Mean Wind SpeedMPH, Max Gust SpeedMPH,PrecipitationIn, CloudCover, Events, WindDirDegrees
2012-12-1,60,46,32,30,28,24,59,46,33,30.09,30.02,29.93,10,10,9,10,2,13,0.00,1,,306
2012-12-2,61,47,32,32,29,24,64,47,29,30.06,29.92,29.79,10,10,10,25,9,32,0.00,1,,192
2012-12-3,52,38,23,35,23,12,65,46,26,30.30,30.10,29.81,10,10,10,22,7,26,T,2,Rain,276
2012-12-4,52,37,21,19,15,10,60,42,24,30.47,30.39,30.32,10,10,10,13,3,13,0.00,1,,266
2012-12-5,55,39,22,20,16,10,55,41,26,30.33,30.18,30.03,10,10,10,10,2,12,0.00,2,,304
2012-12-6,53,43,33,41,32,18,100,69,38,30.04,29.97,29.90,10,10,9,7,2,8,0.06,4,Rain,333
2012-12-7,52,40,27,39,29,20,100,68,35,30.03,29.96,29.92,10,8,1,13,3,16,0.00,1,,280
2012-12-8,53,37,21,23,20,17,75,53,30,29.92,29.87,29.77,10,10,10,15,5,16,0.00,2,,302
2012-12-9,39,28,16,16,1,-11,53,33,13,30.34,30.16,29.91,10,10,10,24,9,29,0.00,3,,30
2012-12-10,37,23,8,7,3,0,55,41,27,30.34,30.25,30.12,10,10,10,12,3,15,0.00,1,,298
2012-12-11,39,25,10,13,9,3,67,50,33,30.25,30.15,29.99,10,10,10,10,2,13,0.00,0,,128
2012-12-12,47,34,21,15,13,9,65,45,25,30.04,29.97,29.91,10,10,10,12,5,13,0.00,0,,124
2012-12-13,55,42,29,14,11,7,50,35,19,29.96,29.89,29.78,10,10,10,21,7,25,0.00,0,,194
2012-12-14,40,36,32,35,29,13,96,66,35,29.81,29.68,29.59,10,10,7,16,4,18,0.05,7,Rain-Snow,299
2012-12-15,42,36,30,33,31,29,96,78,60,29.87,29.82,29.78,10,10,10,18,5,22,T,7,,159
2012-12-16,43,35,26,28,23,17,100,68,36,30.02,29.93,29.81,10,10,10,15,4,18,0.00,3,,222
2012-12-17,47,36,25,26,24,21,81,63,45,30.03,29.93,29.83,10,10,10,17,4,22,0.00,1,,99
2012-12-18,47,36,25,36,28,20,85,65,45,29.85,29.63,29.50,10,8,0,25,10,31,0.23,5,Fog-Rain-Snow,167
2012-12-19,29,12,-5,27,17,-4,100,80,60,30.60,29.92,29.60,10,6,0,14,4,16,0.20,5,Fog-Snow,4
2012-12-20,18,5,-9,6,-1,-11,95,76,56,30.79,30.72,30.60,10,10,10,12,2,13,0.00,0,,295
2012-12-21,11,0,-12,5,-4,-15,95,82,69,30.77,30.65,30.45,10,10,9,10,3,10,0.00,0,,301
2012-12-22,43,23,3,8,-1,-11,76,49,22,30.60,30.43,30.27,10,10,10,12,2,13,0.00,0,,309
2012-12-23,51,31,10,12,7,1,74,47,19,30.38,30.23,29.98,10,10,10,13,3,14,0.00,1,,316
2012-12-24,46,32,17,23,17,6,81,58,35,30.00,29.84,29.71,10,5,0,22,6,25,0.14,8,Snow,324
2012-12-25,43,25,4,16,7,-1,76,52,27,30.30,30.16,29.90,10,10,10,20,2,22,0.00,1,,300
2012-12-26,37,24,5,19,14,6,100,70,40,30.10,29.87,29.73,10,7,0,13,3,15,T,7,Fog-Snow,311
2012-12-27,19,12,5,14,9,3,100,90,80,30.13,29.89,29.75,10,6,0,10,3,12,0.00,8,Fog,320
2012-12-28,19,7,-6,13,6,-3,96,85,73,30.50,30.27,30.04,10,8,0,10,2,12,0.00,2,Fog,290
2012-12-29,20,8,-5,11,2,-8,100,87,73,30.55,30.41,30.12,10,10,6,17,3,18,0.00,1,,307
2012-12-30,15,5,-5,12,6,-5,96,86,76,30.35,30.15,29.93,10,7,1,10,3,12,0.02,5,Snow,322
2012-12-31,19,8,-3,14,9,-4,100,92,84,30.35,30.05,29.90,10,5,0,10,2,12,0.02,6,Fog-Snow,318